1942 Tropical Cyclone NOT_NAMED (1942047S17150)


IBTrACS version v04r00. Visit IBTrACS website for data access.
Please direct all questions to the IBTrACS Q and A forum

Storm track - Intensity - Wind Radii - Intensity Data - Source Data - All data

Summary Information

Storm ID 1942047S17150
Start Feb 15 23Z
Landfall Feb 16 15Z
Max Intensity 35 kt (Feb 17 00Z), 996 mb (Feb 17 23Z)
End Feb 21 23Z
ATCF IDs
Track status Best track data.

Storm track plot

Map of storm track

Intensity plots

Map of storm track

Radial wind information

No radial wind information for this storm


Position and Intensity Table

BASIN ISO_TIME_________ NATURE LAT LON WMO PRES BOM PRES DS824 WIND DS824 PRES
degrees north degrees east mb mb kts mb
SP 1942-02-15 23:00:00 NR -17.35 149.50 999 999
SP 1942-02-16 00:00:00 NR -17.41 149.29
SP 03:00:00 NR -17.59 148.66
SP 06:00:00 NR -17.77 148.00
SP 09:00:00 NR -17.97 147.26
SP 11:00:00 NR -18.12 146.72
SP 12:00:00 TS -18.18 146.42
SP 13:00:00 TS -18.24 146.12
SP 15:00:00 TS -18.40 145.53
SP 18:00:00 TS -18.67 144.74
SP 21:00:00 TS -18.93 144.17
SP 23:00:00 TS -19.11 143.98 998 998
SP 1942-02-17 00:00:00 TS -19.19 143.98 35 998
SP 03:00:00 TS -19.43 144.25
SP 06:00:00 TS -19.66 144.87
SP 09:00:00 TS -19.86 145.71
SP 11:00:00 TS -19.98 146.34
SP 12:00:00 TS -20.03 146.66
SP 15:00:00 TS -20.18 147.63
SP 16:00:00 TS -20.22 147.95
SP 18:00:00 TS -20.32 148.55
SP 21:00:00 TS -20.46 149.42
SP 23:00:00 TS -20.58 149.94 996 996
SP 1942-02-18 00:00:00 TS -20.64 150.18 35 996
SP 03:00:00 TS -20.88 150.73
SP 06:00:00 TS -21.15 151.19
SP 09:00:00 TS -21.44 151.59
SP 11:00:00 TS -21.64 151.83
SP 12:00:00 TS -21.74 151.94
SP 15:00:00 TS -22.05 152.27
SP 18:00:00 TS -22.37 152.56
SP 21:00:00 TS -22.66 152.83
SP 23:00:00 TS -22.84 153.00 996 996
SP 1942-02-19 00:00:00 TS -22.92 153.10 35 996
SP 03:00:00 TS -23.13 153.39
SP 06:00:00 TS -23.31 153.67
SP 09:00:00 TS -23.47 153.93
SP 11:00:00 TS -23.57 154.10
SP 12:00:00 TS -23.61 154.18
SP 15:00:00 TS -23.75 154.42
SP 18:00:00 TS -23.87 154.66
SP 21:00:00 TS -23.98 154.89
SP 23:00:00 TS -24.05 155.04 996 996
SP 1942-02-20 00:00:00 TS -24.09 155.12 35 996
SP 03:00:00 TS -24.21 155.34
SP 06:00:00 TS -24.32 155.57
SP 09:00:00 TS -24.44 155.79
SP 11:00:00 TS -24.52 155.94
SP 12:00:00 TS -24.56 156.02
SP 15:00:00 TS -24.68 156.24
SP 18:00:00 TS -24.80 156.48
SP 21:00:00 TS -24.93 156.73
SP 23:00:00 TS -25.03 156.90 998 998
SP 1942-02-21 00:00:00 TS -25.09 157.00 35 998
SP 03:00:00 NR -25.27 157.32
SP 06:00:00 NR -25.44 157.67
SP 09:00:00 NR -25.60 158.04
SP 11:00:00 NR -25.70 158.29
SP 12:00:00 NR -25.74 158.42
SP 15:00:00 NR -25.86 158.81
SP 18:00:00 NR -25.96 159.20
SP 21:00:00 NR -26.05 159.59
SP 23:00:00 NR -26.10 159.85 999 999

Source Information

Agency Information
USA
TOKYO
CMA
HKO
NEWDELHI
REUNION
BOM IDCKMSTM0S.csv:Line=1107:unnamed
NADI
WELLINGTON
DS824 aus_area.dat:112:NOT NAMED
TD9636 cons_worldwide_trop_cyclone_18710101-19891231-006:Line=2504
TD9635
NEUMANN
MLC

All available IBTrACS Data

SEASON BASIN SUBBASIN ISO_TIME_________ NATURE LAT LON WMO PRES WMO AGENCY DIST2LAND LANDFALL IFLAG USA SSHS BOM LAT BOM LON BOM PRES BOM PRES_METHOD DS824 LAT DS824 LON DS824 STAGE DS824 WIND DS824 PRES TD9636 LAT TD9636 LON TD9636 STAGE STORM SPEED STORM DIR
Year degrees north degrees east mb km km 1 degrees north degrees east mb degrees north degrees east kts mb degrees north degrees east kts degrees
1942 SP EA 1942-02-15 23:00:00 NR -17.35 149.50 999 bom 322 300 ______O___O___ -1 -17.20 149.40 999 -17.50 149.60 7 12 253
1942 SP EA 1942-02-16 00:00:00 NR -17.41 149.29 300 243 ______P___P___ -1 -17.26 149.19 -17.56 149.40 7 12 253
1942 SP EA 03:00:00 NR -17.59 148.66 243 189 ______P___P___ -1 -17.42 148.54 -17.75 148.79 7 13 254
1942 SP EA 06:00:00 NR -17.77 148.00 189 125 ______P___P___ -1 -17.60 147.86 -17.95 148.13 7 14 254
1942 SP EA 09:00:00 NR -17.97 147.26 125 76 ______P___P___ -1 -17.80 147.15 -18.15 147.37 7 15 254
1942 SP EA 11:00:00 NR -18.12 146.72 69 46 ______P___O___ -1 -17.94 146.64 -18.30 146.80 7 17 256
1942 SP EA 12:00:00 TS -18.18 146.42 38 21 ______P__OP___ -1 -18.02 146.37 -18.00 146.30 TC -18.38 146.49 7 18 258
1942 SP EA 13:00:00 TS -18.24 146.12 bom 10 0 ______O__PP___ -1 -18.10 146.10 -18.10 146.05 TC -18.45 146.17 7 17 255
1942 SP EA 15:00:00 TS -18.40 145.53 0 0 ______P__PP___ -1 -18.27 145.53 -18.30 145.55 TC -18.61 145.51 7 16 252
1942 SP EA 18:00:00 TS -18.67 144.74 0 0 ______P__PP___ -1 -18.55 144.72 -18.58 144.89 TC -18.86 144.62 7 14 248
1942 SP EA 21:00:00 TS -18.93 144.17 0 0 ______P__PP___ -1 -18.83 144.11 -18.85 144.41 TC -19.12 143.99 7 10 239
1942 SP EA 23:00:00 TS -19.11 143.98 998 bom 0 0 ______O__PO___ -1 -19.00 143.90 998 -19.02 144.23 TC -19.30 143.80 7 6 215
1942 SP EA 1942-02-17 00:00:00 TS -19.19 143.98 0 0 ______P__OP___ -1 -19.07 143.91 -19.10 144.20 TC 35 998 -19.40 143.82 7 6 141
1942 SP EA 03:00:00 TS -19.43 144.25 0 0 ______P__PP___ -1 -19.27 144.26 -19.32 144.34 TC -19.70 144.17 7 10 119
1942 SP EA 06:00:00 TS -19.66 144.87 0 0 ______P__PP___ -1 -19.45 144.97 -19.53 144.78 TC -20.00 144.86 7 14 107
1942 SP EA 09:00:00 TS -19.86 145.71 0 0 ______P__PP___ -1 -19.61 145.92 -19.71 145.46 TC -20.26 145.76 7 17 103
1942 SP EA 11:00:00 TS -19.98 146.34 0 0 ______P__PO___ -1 -19.72 146.62 -19.83 146.01 TC -20.40 146.40 7 18 101
1942 SP EA 12:00:00 TS -20.03 146.66 0 0 ______P__PP___ -1 -19.77 146.97 -19.89 146.31 TC -20.45 146.69 7 18 99
1942 SP EA 15:00:00 TS -20.18 147.63 0 0 ______P__PP___ -1 -19.94 147.99 -20.06 147.26 TC -20.53 147.62 7 18 99
1942 SP EA 16:00:00 TS -20.22 147.95 bom 0 0 ______O__PP___ -1 -20.00 148.30 -20.11 147.60 TC -20.55 147.94 7 18 99
1942 SP EA 18:00:00 TS -20.32 148.55 0 0 ______P__PP___ -1 -20.13 148.81 -20.23 148.26 TC -20.58 148.58 7 17 100
1942 SP EA 21:00:00 TS -20.46 149.42 52 52 ______P__PP___ -1 -20.35 149.55 -20.41 149.23 TC -20.64 149.48 7 16 101
1942 SP EA 23:00:00 TS -20.58 149.94 996 bom 91 91 ______O__PO___ -1 -20.50 150.00 996 4 -20.53 149.82 TC -20.70 150.00 7 15 104
1942 SP EA 1942-02-18 00:00:00 TS -20.64 150.18 117 113 ______P__OP___ -1 -20.58 150.21 -20.60 150.10 TC 35 996 -20.75 150.22 7 12 112
1942 SP EA 03:00:00 TS -20.88 150.73 155 148 ______P__PP___ -1 -20.85 150.78 -20.87 150.63 TC -20.93 150.77 7 11 118
1942 SP EA 06:00:00 TS -21.15 151.19 154 138 ______P__PP___ -1 -21.13 151.26 -21.16 151.10 TC -21.15 151.22 7 10 125
1942 SP EA 09:00:00 TS -21.44 151.59 145 136 ______P__PP___ -1 -21.44 151.67 -21.46 151.52 TC -21.41 151.58 7 9 130
1942 SP EA 11:00:00 TS -21.64 151.83 144 136 ______P__PO___ -1 -21.64 151.90 -21.67 151.77 TC -21.60 151.80 7 9 133
1942 SP EA 12:00:00 TS -21.74 151.94 144 144 ______P__PP___ -1 -21.75 152.02 -21.77 151.89 TC -21.70 151.92 7 9 135
1942 SP EA 15:00:00 TS -22.05 152.27 160 160 ______P__PP___ -1 -22.06 152.32 -22.08 152.23 TC -22.03 152.25 7 8 138
1942 SP EA 18:00:00 TS -22.37 152.56 185 184 ______P__PP___ -1 -22.35 152.59 -22.37 152.54 TC -22.37 152.55 7 8 139
1942 SP EA 21:00:00 TS -22.66 152.83 186 183 ______P__PP___ -1 -22.63 152.84 -22.65 152.83 TC -22.70 152.82 7 8 139
1942 SP EA 23:00:00 TS -22.84 153.00 996 bom 189 181 ______O__PO___ -1 -22.80 153.00 996 -22.82 153.01 TC -22.90 153.00 7 7 136
1942 SP EA 1942-02-19 00:00:00 TS -22.92 153.10 188 180 ______P__OP___ -1 -22.87 153.10 -22.90 153.10 TC 35 996 -22.99 153.10 7 7 129
1942 SP EA 03:00:00 TS -23.13 153.39 190 170 ______P__PP___ -1 -23.07 153.40 -23.09 153.40 TC -23.22 153.38 7 7 127
1942 SP EA 06:00:00 TS -23.31 153.67 172 157 ______P__PP___ -1 -23.24 153.67 -23.26 153.68 TC -23.42 153.66 7 6 125
1942 SP EA 09:00:00 TS -23.47 153.93 157 156 ______P__PP___ -1 -23.40 153.92 -23.41 153.94 TC -23.60 153.93 7 6 123
1942 SP EA 11:00:00 TS -23.57 154.10 156 156 ______P__PO___ -1 -23.50 154.09 -23.50 154.11 TC -23.70 154.10 7 5 122
1942 SP EA 12:00:00 TS -23.61 154.18 162 153 ______P__PP___ -1 -23.54 154.17 -23.55 154.19 TC -23.75 154.19 7 5 121
1942 SP EA 15:00:00 TS -23.75 154.42 165 157 ______P__PP___ -1 -23.67 154.40 -23.67 154.42 TC -23.90 154.45 7 5 120
1942 SP EA 18:00:00 TS -23.87 154.66 173 173 ______P__PP___ -1 -23.80 154.63 -23.78 154.65 TC -24.02 154.70 7 5 119
1942 SP EA 21:00:00 TS -23.98 154.89 184 184 ______P__PP___ -1 -23.92 154.85 -23.89 154.88 TC -24.13 154.94 7 5 118
1942 SP EA 23:00:00 TS -24.05 155.04 996 bom 188 188 ______O__PO___ -1 -24.00 155.00 996 -23.96 155.02 TC -24.20 155.10 7 5 119
1942 SP EA 1942-02-20 00:00:00 TS -24.09 155.12 198 198 ______P__OP___ -1 -24.04 155.07 -24.00 155.10 TC 35 996 -24.24 155.18 7 5 119
1942 SP EA 03:00:00 TS -24.21 155.34 211 211 ______P__PP___ -1 -24.18 155.29 -24.11 155.33 TC -24.34 155.41 7 5 119
1942 SP EA 06:00:00 TS -24.32 155.57 235 231 ______P__PP___ -1 -24.31 155.51 -24.23 155.56 TC -24.43 155.63 7 5 119
1942 SP EA 09:00:00 TS -24.44 155.79 251 248 ______P__PP___ -1 -24.43 155.73 -24.36 155.79 TC -24.53 155.85 7 5 120
1942 SP EA 11:00:00 TS -24.52 155.94 258 258 ______P__PO___ -1 -24.51 155.88 -24.44 155.95 TC -24.60 156.00 7 5 120
1942 SP EA 12:00:00 TS -24.56 156.02 266 266 ______P__PP___ -1 -24.55 155.95 -24.48 156.03 TC -24.63 156.07 7 5 120
1942 SP EA 15:00:00 TS -24.68 156.24 284 284 ______P__PP___ -1 -24.68 156.19 -24.61 156.27 TC -24.74 156.27 7 5 120
1942 SP EA 18:00:00 TS -24.80 156.48 313 313 ______P__PP___ -1 -24.80 156.44 -24.74 156.51 TC -24.86 156.49 7 5 121
1942 SP EA 21:00:00 TS -24.93 156.73 332 332 ______P__PP___ -1 -24.92 156.71 -24.87 156.76 TC -25.00 156.72 7 5 121
1942 SP EA 23:00:00 TS -25.03 156.90 998 bom 352 352 ______O__PO___ -1 -25.00 156.90 998 -24.96 156.92 TC -25.10 156.90 7 6 122
1942 SP EA 1942-02-21 00:00:00 TS -25.09 157.00 362 362 ______P__OP___ -1 -25.04 157.00 -25.00 157.00 TC 35 998 -25.16 157.00 7 7 122
1942 SP EA 03:00:00 NR -25.27 157.32 393 393 ______P___P___ -1 -25.17 157.32 TC -25.37 157.32 7 7 120
1942 SP EA 06:00:00 NR -25.44 157.67 434 434 ______P___P___ -1 -25.29 157.67 TC -25.59 157.67 7 7 117
1942 SP EA 09:00:00 NR -25.60 158.04 466 466 ______P___P___ -1 -25.42 158.03 TC -25.79 158.05 7 7 115
1942 SP EA 11:00:00 NR -25.70 158.29 498 498 ______P___O___ -1 -25.50 158.28 TC -25.90 158.30 7 7 113
1942 SP EA 12:00:00 NR -25.74 158.42 508 508 ______P___P___ -1 -25.54 158.41 TC -25.95 158.43 7 7 109
1942 SP EA 15:00:00 NR -25.86 158.81 550 550 ______P___P___ -1 -25.67 158.81 TC -26.06 158.80 7 7 107
1942 SP EA 18:00:00 NR -25.96 159.20 592 592 ______P___P___ -1 -25.79 159.21 TC -26.13 159.18 7 7 105
1942 SP EA 21:00:00 NR -26.05 159.59 631 631 ______P___P___ -1 -25.92 159.62 TC -26.18 159.55 7 7 103
1942 SP EA 23:00:00 NR -26.10 159.85 999 bom 662 ______O___O___ -1 -26.00 159.90 999 TC -26.20 159.80 7 7 103